sensor_id;sensor_type;location;lat;lon;timestamp;temperature;humidity
14210;DHT22;7188;56.070;12.698;2023-09-19T00:00:42;17.80;99.90
14210;DHT22;7188;56.070;12.698;2023-09-19T00:03:09;17.80;99.90
14210;DHT22;7188;56.070;12.698;2023-09-19T00:05:38;17.80;99.90
14210;DHT22;7188;56.070;12.698;2023-09-19T00:08:05;17.90;99.90
14210;DHT22;7188;56.070;12.698;2023-09-19T00:10:32;17.90;99.90
14210;DHT22;7188;56.070;12.698;2023-09-19T00:13:01;17.90;99.90
14210;DHT22;7188;56.070;12.698;2023-09-19T00:15:35;17.90;99.90
14210;DHT22;7188;56.070;12.698;2023-09-19T00:18:03;17.90;99.90
14210;DHT22;7188;56.070;12.698;2023-09-19T00:20:31;17.90;99.90
14210;DHT22;7188;56.070;12.698;2023-09-19T00:22:57;17.90;99.90
14210;DHT22;7188;56.070;12.698;2023-09-19T00:25:31;17.90;99.90
14210;DHT22;7188;56.070;12.698;2023-09-19T00:27:57;17.80;99.90
14210;DHT22;7188;56.070;12.698;2023-09-19T00:30:23;17.80;99.90
14210;DHT22;7188;56.070;12.698;2023-09-19T00:32:50;17.90;99.90
14210;DHT22;7188;56.070;12.698;2023-09-19T00:35:20;17.80;99.90
14210;DHT22;7188;56.070;12.698;2023-09-19T00:37:47;17.80;99.90
14210;DHT22;7188;56.070;12.698;2023-09-19T00:40:12;17.80;99.90
14210;DHT22;7188;56.070;12.698;2023-09-19T00:42:48;17.80;99.90
14210;DHT22;7188;56.070;12.698;2023-09-19T00:45:16;17.70;99.90
14210;DHT22;7188;56.070;12.698;2023-09-19T00:47:44;17.80;99.90
14210;DHT22;7188;56.070;12.698;2023-09-19T00:50:20;17.80;99.90
14210;DHT22;7188;56.070;12.698;2023-09-19T00:52:48;17.80;99.90
14210;DHT22;7188;56.070;12.698;2023-09-19T00:55:15;17.80;99.90
14210;DHT22;7188;56.070;12.698;2023-09-19T00:57:42;17.80;99.90
14210;DHT22;7188;56.070;12.698;2023-09-19T01:00:10;17.80;99.90
14210;DHT22;7188;56.070;12.698;2023-09-19T01:02:41;17.80;99.90
14210;DHT22;7188;56.070;12.698;2023-09-19T01:05:08;17.80;99.90
14210;DHT22;7188;56.070;12.698;2023-09-19T01:07:35;17.80;99.90
14210;DHT22;7188;56.070;12.698;2023-09-19T01:10:06;17.80;99.90
14210;DHT22;7188;56.070;12.698;2023-09-19T01:13:00;17.90;99.90
14210;DHT22;7188;56.070;12.698;2023-09-19T01:27:17;18.00;99.90
14210;DHT22;7188;56.070;12.698;2023-09-19T01:29:49;18.00;99.90
14210;DHT22;7188;56.070;12.698;2023-09-19T01:32:22;18.00;99.90
14210;DHT22;7188;56.070;12.698;2023-09-19T01:34:55;18.00;99.90
14210;DHT22;7188;56.070;12.698;2023-09-19T01:37:23;18.00;99.90
14210;DHT22;7188;56.070;12.698;2023-09-19T01:39:57;18.00;99.90
14210;DHT22;7188;56.070;12.698;2023-09-19T01:42:55;18.00;99.90
14210;DHT22;7188;56.070;12.698;2023-09-19T01:51:24;18.00;99.90
14210;DHT22;7188;56.070;12.698;2023-09-19T01:54:10;18.00;99.90
14210;DHT22;7188;56.070;12.698;2023-09-19T01:59:17;18.00;99.90
14210;DHT22;7188;56.070;12.698;2023-09-19T02:01:48;18.10;99.90
14210;DHT22;7188;56.070;12.698;2023-09-19T02:04:15;18.10;99.90
14210;DHT22;7188;56.070;12.698;2023-09-19T02:06:41;18.10;99.90
14210;DHT22;7188;56.070;12.698;2023-09-19T02:09:07;18.10;99.90
14210;DHT22;7188;56.070;12.698;2023-09-19T02:11:34;18.00;99.90
14210;DHT22;7188;56.070;12.698;2023-09-19T02:14:00;18.00;99.90
14210;DHT22;7188;56.070;12.698;2023-09-19T02:16:26;18.00;99.90
14210;DHT22;7188;56.070;12.698;2023-09-19T02:18:52;18.00;99.90
14210;DHT22;7188;56.070;12.698;2023-09-19T02:21:18;18.00;99.90
14210;DHT22;7188;56.070;12.698;2023-09-19T02:23:45;18.00;99.90
14210;DHT22;7188;56.070;12.698;2023-09-19T02:26:12;17.90;99.90
14210;DHT22;7188;56.070;12.698;2023-09-19T02:28:39;17.90;99.90
14210;DHT22;7188;56.070;12.698;2023-09-19T02:31:05;17.80;99.90
14210;DHT22;7188;56.070;12.698;2023-09-19T02:33:31;17.80;99.90
14210;DHT22;7188;56.070;12.698;2023-09-19T02:35:58;17.70;99.90
14210;DHT22;7188;56.070;12.698;2023-09-19T02:38:25;17.70;99.90
14210;DHT22;7188;56.070;12.698;2023-09-19T02:40:53;17.60;99.90
14210;DHT22;7188;56.070;12.698;2023-09-19T02:43:21;17.60;99.90
14210;DHT22;7188;56.070;12.698;2023-09-19T02:45:47;17.60;99.90
14210;DHT22;7188;56.070;12.698;2023-09-19T02:48:15;17.50;99.90
14210;DHT22;7188;56.070;12.698;2023-09-19T02:50:41;17.50;99.90
14210;DHT22;7188;56.070;12.698;2023-09-19T02:53:07;17.50;99.90
14210;DHT22;7188;56.070;12.698;2023-09-19T02:55:46;17.50;99.90
14210;DHT22;7188;56.070;12.698;2023-09-19T02:58:12;17.50;99.90
14210;DHT22;7188;56.070;12.698;2023-09-19T03:00:39;17.50;99.90
14210;DHT22;7188;56.070;12.698;2023-09-19T03:03:08;17.40;99.90
14210;DHT22;7188;56.070;12.698;2023-09-19T03:05:34;17.40;99.90
14210;DHT22;7188;56.070;12.698;2023-09-19T03:08:00;17.40;99.90
14210;DHT22;7188;56.070;12.698;2023-09-19T03:10:29;17.40;99.90
14210;DHT22;7188;56.070;12.698;2023-09-19T03:12:56;17.40;99.90
14210;DHT22;7188;56.070;12.698;2023-09-19T03:15:22;17.30;99.90
14210;DHT22;7188;56.070;12.698;2023-09-19T03:17:49;17.30;99.90
14210;DHT22;7188;56.070;12.698;2023-09-19T03:20:15;17.30;99.90
14210;DHT22;7188;56.070;12.698;2023-09-19T03:22:43;17.20;99.90
14210;DHT22;7188;56.070;12.698;2023-09-19T03:25:09;17.20;99.90
14210;DHT22;7188;56.070;12.698;2023-09-19T03:27:41;17.20;99.90
14210;DHT22;7188;56.070;12.698;2023-09-19T03:30:07;17.20;99.90
14210;DHT22;7188;56.070;12.698;2023-09-19T03:32:44;17.20;99.90
14210;DHT22;7188;56.070;12.698;2023-09-19T03:35:11;17.20;99.90
14210;DHT22;7188;56.070;12.698;2023-09-19T03:37:40;17.20;99.90
14210;DHT22;7188;56.070;12.698;2023-09-19T03:40:07;17.30;99.90
14210;DHT22;7188;56.070;12.698;2023-09-19T03:42:33;17.30;99.90
14210;DHT22;7188;56.070;12.698;2023-09-19T03:45:01;17.20;99.90
14210;DHT22;7188;56.070;12.698;2023-09-19T03:47:29;17.20;99.90
14210;DHT22;7188;56.070;12.698;2023-09-19T03:49:55;17.20;99.90
14210;DHT22;7188;56.070;12.698;2023-09-19T03:52:20;17.20;99.90
14210;DHT22;7188;56.070;12.698;2023-09-19T03:54:46;17.20;99.90
14210;DHT22;7188;56.070;12.698;2023-09-19T03:57:11;17.20;99.90
14210;DHT22;7188;56.070;12.698;2023-09-19T03:59:38;17.20;99.90
14210;DHT22;7188;56.070;12.698;2023-09-19T04:02:03;17.20;99.90
14210;DHT22;7188;56.070;12.698;2023-09-19T04:04:30;17.20;99.90
14210;DHT22;7188;56.070;12.698;2023-09-19T04:06:55;17.20;99.90
14210;DHT22;7188;56.070;12.698;2023-09-19T04:09:21;17.20;99.90
14210;DHT22;7188;56.070;12.698;2023-09-19T04:11:46;17.20;99.90
14210;DHT22;7188;56.070;12.698;2023-09-19T04:14:12;17.20;99.90
14210;DHT22;7188;56.070;12.698;2023-09-19T04:16:38;17.20;99.90
14210;DHT22;7188;56.070;12.698;2023-09-19T04:19:04;17.10;99.90
14210;DHT22;7188;56.070;12.698;2023-09-19T04:21:30;17.10;99.90
14210;DHT22;7188;56.070;12.698;2023-09-19T04:23:57;17.10;99.90
14210;DHT22;7188;56.070;12.698;2023-09-19T04:26:32;17.10;99.90
14210;DHT22;7188;56.070;12.698;2023-09-19T04:28:58;17.10;99.90
14210;DHT22;7188;56.070;12.698;2023-09-19T04:31:24;17.10;99.90
14210;DHT22;7188;56.070;12.698;2023-09-19T04:33:49;17.00;99.90
14210;DHT22;7188;56.070;12.698;2023-09-19T04:36:15;17.00;99.90
14210;DHT22;7188;56.070;12.698;2023-09-19T04:38:41;17.00;99.90
14210;DHT22;7188;56.070;12.698;2023-09-19T04:41:06;16.90;99.90
14210;DHT22;7188;56.070;12.698;2023-09-19T04:43:32;16.80;99.90
14210;DHT22;7188;56.070;12.698;2023-09-19T04:45:57;16.80;99.90
14210;DHT22;7188;56.070;12.698;2023-09-19T04:48:25;16.80;99.90
14210;DHT22;7188;56.070;12.698;2023-09-19T04:50:51;16.80;99.90
14210;DHT22;7188;56.070;12.698;2023-09-19T04:53:18;16.80;99.90
14210;DHT22;7188;56.070;12.698;2023-09-19T04:55:49;16.70;99.90
14210;DHT22;7188;56.070;12.698;2023-09-19T04:58:15;16.70;99.90
14210;DHT22;7188;56.070;12.698;2023-09-19T05:00:40;16.70;99.90
14210;DHT22;7188;56.070;12.698;2023-09-19T05:03:06;16.70;99.90
14210;DHT22;7188;56.070;12.698;2023-09-19T05:05:34;16.60;99.90
14210;DHT22;7188;56.070;12.698;2023-09-19T05:08:00;16.60;99.90
14210;DHT22;7188;56.070;12.698;2023-09-19T05:10:25;16.50;99.90
14210;DHT22;7188;56.070;12.698;2023-09-19T05:12:54;16.50;99.90
14210;DHT22;7188;56.070;12.698;2023-09-19T05:15:20;16.40;99.90
14210;DHT22;7188;56.070;12.698;2023-09-19T05:17:52;16.40;99.90
14210;DHT22;7188;56.070;12.698;2023-09-19T05:20:20;16.40;99.90
14210;DHT22;7188;56.070;12.698;2023-09-19T05:23:02;16.40;99.90
14210;DHT22;7188;56.070;12.698;2023-09-19T05:25:31;16.30;99.90
14210;DHT22;7188;56.070;12.698;2023-09-19T05:27:58;16.30;99.90
14210;DHT22;7188;56.070;12.698;2023-09-19T05:30:25;16.30;99.90
14210;DHT22;7188;56.070;12.698;2023-09-19T05:32:53;16.30;99.90
14210;DHT22;7188;56.070;12.698;2023-09-19T05:35:19;16.20;99.90
14210;DHT22;7188;56.070;12.698;2023-09-19T05:37:47;16.20;99.90
14210;DHT22;7188;56.070;12.698;2023-09-19T05:40:19;16.20;99.90
14210;DHT22;7188;56.070;12.698;2023-09-19T05:42:45;16.20;99.90
14210;DHT22;7188;56.070;12.698;2023-09-19T05:45:11;16.10;99.90
14210;DHT22;7188;56.070;12.698;2023-09-19T05:47:44;16.20;99.90
14210;DHT22;7188;56.070;12.698;2023-09-19T05:50:11;16.20;99.90
14210;DHT22;7188;56.070;12.698;2023-09-19T05:52:38;16.20;99.90
14210;DHT22;7188;56.070;12.698;2023-09-19T05:55:07;16.20;99.90
14210;DHT22;7188;56.070;12.698;2023-09-19T05:57:37;16.20;99.90
14210;DHT22;7188;56.070;12.698;2023-09-19T06:00:08;16.20;99.90
14210;DHT22;7188;56.070;12.698;2023-09-19T06:02:39;16.30;99.90
14210;DHT22;7188;56.070;12.698;2023-09-19T06:05:06;16.30;99.90
14210;DHT22;7188;56.070;12.698;2023-09-19T06:07:34;16.30;99.90
14210;DHT22;7188;56.070;12.698;2023-09-19T06:10:03;16.30;99.90
14210;DHT22;7188;56.070;12.698;2023-09-19T06:12:31;16.30;99.90
14210;DHT22;7188;56.070;12.698;2023-09-19T06:15:01;16.30;99.90
14210;DHT22;7188;56.070;12.698;2023-09-19T06:17:27;16.40;99.90
14210;DHT22;7188;56.070;12.698;2023-09-19T06:19:53;16.40;99.90
14210;DHT22;7188;56.070;12.698;2023-09-19T06:22:21;16.40;99.90
14210;DHT22;7188;56.070;12.698;2023-09-19T06:24:46;16.50;99.90
14210;DHT22;7188;56.070;12.698;2023-09-19T06:27:12;16.50;99.90
14210;DHT22;7188;56.070;12.698;2023-09-19T06:29:38;16.60;99.90
14210;DHT22;7188;56.070;12.698;2023-09-19T06:32:10;16.70;99.90
14210;DHT22;7188;56.070;12.698;2023-09-19T06:34:37;16.60;99.90
14210;DHT22;7188;56.070;12.698;2023-09-19T06:37:08;16.60;99.90
14210;DHT22;7188;56.070;12.698;2023-09-19T06:39:34;16.60;99.90
14210;DHT22;7188;56.070;12.698;2023-09-19T06:42:09;16.50;99.90
14210;DHT22;7188;56.070;12.698;2023-09-19T06:44:36;16.50;99.90
14210;DHT22;7188;56.070;12.698;2023-09-19T06:47:01;16.40;99.90
14210;DHT22;7188;56.070;12.698;2023-09-19T06:49:27;16.40;99.90
14210;DHT22;7188;56.070;12.698;2023-09-19T06:51:55;16.50;99.90
14210;DHT22;7188;56.070;12.698;2023-09-19T06:54:20;16.60;99.90
14210;DHT22;7188;56.070;12.698;2023-09-19T06:56:46;16.70;99.90
14210;DHT22;7188;56.070;12.698;2023-09-19T06:59:12;16.70;99.90
14210;DHT22;7188;56.070;12.698;2023-09-19T07:01:40;16.70;99.90
14210;DHT22;7188;56.070;12.698;2023-09-19T07:04:06;16.80;99.90
14210;DHT22;7188;56.070;12.698;2023-09-19T07:06:32;16.80;99.90
14210;DHT22;7188;56.070;12.698;2023-09-19T07:08:58;16.80;1.00
14210;DHT22;7188;56.070;12.698;2023-09-19T07:11:24;16.80;99.90
14210;DHT22;7188;56.070;12.698;2023-09-19T07:13:49;16.90;16.10
14210;DHT22;7188;56.070;12.698;2023-09-19T07:16:15;17.00;1.00
14210;DHT22;7188;56.070;12.698;2023-09-19T07:18:53;17.00;10.10
14210;DHT22;7188;56.070;12.698;2023-09-19T07:21:20;16.90;1.00
14210;DHT22;7188;56.070;12.698;2023-09-19T07:23:46;16.70;42.70
14210;DHT22;7188;56.070;12.698;2023-09-19T07:26:12;16.70;1.00
14210;DHT22;7188;56.070;12.698;2023-09-19T07:28:38;16.70;22.10
14210;DHT22;7188;56.070;12.698;2023-09-19T07:31:04;16.60;1.00
14210;DHT22;7188;56.070;12.698;2023-09-19T07:33:30;16.60;1.00
14210;DHT22;7188;56.070;12.698;2023-09-19T07:35:56;16.70;1.00
14210;DHT22;7188;56.070;12.698;2023-09-19T07:38:22;16.80;1.00
14210;DHT22;7188;56.070;12.698;2023-09-19T07:40:48;16.70;1.00
14210;DHT22;7188;56.070;12.698;2023-09-19T07:43:14;16.60;99.90
14210;DHT22;7188;56.070;12.698;2023-09-19T07:45:39;16.60;91.30
14210;DHT22;7188;56.070;12.698;2023-09-19T07:48:05;16.60;99.90
14210;DHT22;7188;56.070;12.698;2023-09-19T07:50:39;16.50;9.40
14210;DHT22;7188;56.070;12.698;2023-09-19T07:53:05;16.60;93.30
14210;DHT22;7188;56.070;12.698;2023-09-19T07:55:31;16.70;1.00
14210;DHT22;7188;56.070;12.698;2023-09-19T07:57:59;16.80;1.00
14210;DHT22;7188;56.070;12.698;2023-09-19T08:00:24;16.90;1.00
14210;DHT22;7188;56.070;12.698;2023-09-19T08:02:50;17.00;1.00
14210;DHT22;7188;56.070;12.698;2023-09-19T08:05:17;17.20;1.00
14210;DHT22;7188;56.070;12.698;2023-09-19T08:07:45;17.30;99.90
14210;DHT22;7188;56.070;12.698;2023-09-19T08:10:14;17.40;1.00
14210;DHT22;7188;56.070;12.698;2023-09-19T08:12:41;17.30;1.00
14210;DHT22;7188;56.070;12.698;2023-09-19T08:15:20;17.30;1.00
14210;DHT22;7188;56.070;12.698;2023-09-19T08:17:46;17.20;1.00
14210;DHT22;7188;56.070;12.698;2023-09-19T08:20:12;17.10;99.90
14210;DHT22;7188;56.070;12.698;2023-09-19T08:22:52;17.10;99.90
14210;DHT22;7188;56.070;12.698;2023-09-19T08:25:20;17.10;99.90
14210;DHT22;7188;56.070;12.698;2023-09-19T08:27:47;17.20;99.90
14210;DHT22;7188;56.070;12.698;2023-09-19T08:30:19;17.20;99.90
14210;DHT22;7188;56.070;12.698;2023-09-19T08:32:49;17.10;99.90
14210;DHT22;7188;56.070;12.698;2023-09-19T08:35:24;17.10;42.60
14210;DHT22;7188;56.070;12.698;2023-09-19T08:37:50;17.00;3.90
14210;DHT22;7188;56.070;12.698;2023-09-19T08:40:17;17.00;1.00
14210;DHT22;7188;56.070;12.698;2023-09-19T08:42:54;16.40;15.00
14210;DHT22;7188;56.070;12.698;2023-09-19T08:45:21;15.60;99.90
14210;DHT22;7188;56.070;12.698;2023-09-19T08:51:07;14.50;66.70
14210;DHT22;7188;56.070;12.698;2023-09-19T08:53:47;14.30;99.90
14210;DHT22;7188;56.070;12.698;2023-09-19T08:56:17;14.00;99.90
14210;DHT22;7188;56.070;12.698;2023-09-19T08:58:57;14.00;99.90
14210;DHT22;7188;56.070;12.698;2023-09-19T09:01:27;13.90;1.00
14210;DHT22;7188;56.070;12.698;2023-09-19T09:03:55;13.90;1.00
14210;DHT22;7188;56.070;12.698;2023-09-19T09:06:22;14.00;1.00
14210;DHT22;7188;56.070;12.698;2023-09-19T09:08:50;14.00;1.00
14210;DHT22;7188;56.070;12.698;2023-09-19T09:11:16;14.10;99.90
14210;DHT22;7188;56.070;12.698;2023-09-19T09:13:44;14.10;1.00
14210;DHT22;7188;56.070;12.698;2023-09-19T09:16:11;14.00;99.90
14210;DHT22;7188;56.070;12.698;2023-09-19T09:18:38;14.00;1.00
14210;DHT22;7188;56.070;12.698;2023-09-19T09:21:04;14.00;1.00
14210;DHT22;7188;56.070;12.698;2023-09-19T09:23:30;14.00;45.10
14210;DHT22;7188;56.070;12.698;2023-09-19T09:25:58;14.00;37.40
14210;DHT22;7188;56.070;12.698;2023-09-19T09:28:29;14.00;1.00
14210;DHT22;7188;56.070;12.698;2023-09-19T09:30:57;14.00;1.00
14210;DHT22;7188;56.070;12.698;2023-09-19T09:33:24;14.00;1.00
14210;DHT22;7188;56.070;12.698;2023-09-19T09:38:18;14.10;1.00
14210;DHT22;7188;56.070;12.698;2023-09-19T09:40:51;14.30;99.90
14210;DHT22;7188;56.070;12.698;2023-09-19T09:43:33;14.40;99.90
14210;DHT22;7188;56.070;12.698;2023-09-19T09:46:11;14.60;99.90
14210;DHT22;7188;56.070;12.698;2023-09-19T09:49:05;14.80;99.90
14210;DHT22;7188;56.070;12.698;2023-09-19T09:51:45;15.20;99.90
14210;DHT22;7188;56.070;12.698;2023-09-19T09:54:32;15.40;1.00
14210;DHT22;7188;56.070;12.698;2023-09-19T09:57:03;15.60;1.00
14210;DHT22;7188;56.070;12.698;2023-09-19T09:59:51;15.80;1.00
14210;DHT22;7188;56.070;12.698;2023-09-19T10:02:35;16.10;99.90
14210;DHT22;7188;56.070;12.698;2023-09-19T10:05:14;16.30;1.00
14210;DHT22;7188;56.070;12.698;2023-09-19T10:08:10;16.50;44.90
14210;DHT22;7188;56.070;12.698;2023-09-19T10:10:39;16.70;99.90
14210;DHT22;7188;56.070;12.698;2023-09-19T10:13:08;16.60;1.00
14210;DHT22;7188;56.070;12.698;2023-09-19T10:15:38;16.60;99.90
14210;DHT22;7188;56.070;12.698;2023-09-19T10:18:06;16.60;98.60
14210;DHT22;7188;56.070;12.698;2023-09-19T10:20:36;16.50;1.00
14210;DHT22;7188;56.070;12.698;2023-09-19T10:23:08;16.30;24.60
14210;DHT22;7188;56.070;12.698;2023-09-19T10:25:43;16.20;1.00
14210;DHT22;7188;56.070;12.698;2023-09-19T10:28:13;16.10;1.00
14210;DHT22;7188;56.070;12.698;2023-09-19T10:30:57;16.10;99.90
14210;DHT22;7188;56.070;12.698;2023-09-19T10:33:25;16.00;1.00
14210;DHT22;7188;56.070;12.698;2023-09-19T10:35:52;16.10;1.00
14210;DHT22;7188;56.070;12.698;2023-09-19T10:38:25;16.20;1.00
14210;DHT22;7188;56.070;12.698;2023-09-19T10:40:53;16.40;1.00
14210;DHT22;7188;56.070;12.698;2023-09-19T10:43:21;16.60;99.90
14210;DHT22;7188;56.070;12.698;2023-09-19T10:45:48;16.90;99.90
14210;DHT22;7188;56.070;12.698;2023-09-19T10:48:18;17.00;99.90
14210;DHT22;7188;56.070;12.698;2023-09-19T10:50:52;17.00;1.00
14210;DHT22;7188;56.070;12.698;2023-09-19T10:53:20;17.00;1.00
14210;DHT22;7188;56.070;12.698;2023-09-19T10:55:50;16.90;1.00
14210;DHT22;7188;56.070;12.698;2023-09-19T10:58:31;16.90;99.90
14210;DHT22;7188;56.070;12.698;2023-09-19T11:01:02;16.80;99.90
14210;DHT22;7188;56.070;12.698;2023-09-19T11:03:31;16.90;99.90
14210;DHT22;7188;56.070;12.698;2023-09-19T11:06:12;16.90;99.90
14210;DHT22;7188;56.070;12.698;2023-09-19T11:08:59;17.00;99.90
14210;DHT22;7188;56.070;12.698;2023-09-19T11:11:42;17.10;30.00
14210;DHT22;7188;56.070;12.698;2023-09-19T11:14:59;17.20;1.00
14210;DHT22;7188;56.070;12.698;2023-09-19T11:17:35;17.20;1.00
14210;DHT22;7188;56.070;12.698;2023-09-19T11:30:39;17.50;99.90
14210;DHT22;7188;56.070;12.698;2023-09-19T11:33:21;17.40;99.90
14210;DHT22;7188;56.070;12.698;2023-09-19T11:36:06;17.40;99.90
14210;DHT22;7188;56.070;12.698;2023-09-19T11:44:30;17.40;99.90
14210;DHT22;7188;56.070;12.698;2023-09-19T11:47:01;17.60;99.90
14210;DHT22;7188;56.070;12.698;2023-09-19T11:49:30;17.70;99.90
14210;DHT22;7188;56.070;12.698;2023-09-19T11:51:58;17.70;99.90
14210;DHT22;7188;56.070;12.698;2023-09-19T11:54:27;17.70;79.60
14210;DHT22;7188;56.070;12.698;2023-09-19T11:56:58;17.80;79.40
14210;DHT22;7188;56.070;12.698;2023-09-19T11:59:28;17.90;93.10
14210;DHT22;7188;56.070;12.698;2023-09-19T12:02:00;18.10;99.90
14210;DHT22;7188;56.070;12.698;2023-09-19T12:04:42;18.20;82.00
14210;DHT22;7188;56.070;12.698;2023-09-19T12:07:15;18.30;68.80
14210;DHT22;7188;56.070;12.698;2023-09-19T12:09:45;18.30;1.00
14210;DHT22;7188;56.070;12.698;2023-09-19T12:12:28;18.40;1.00
14210;DHT22;7188;56.070;12.698;2023-09-19T12:14:54;18.50;5.70
14210;DHT22;7188;56.070;12.698;2023-09-19T12:17:20;18.50;3.80
14210;DHT22;7188;56.070;12.698;2023-09-19T12:19:53;18.50;1.00
14210;DHT22;7188;56.070;12.698;2023-09-19T12:22:20;18.30;1.00
14210;DHT22;7188;56.070;12.698;2023-09-19T12:24:48;18.20;1.00
14210;DHT22;7188;56.070;12.698;2023-09-19T12:27:15;18.10;1.00
14210;DHT22;7188;56.070;12.698;2023-09-19T12:29:43;18.00;1.00
14210;DHT22;7188;56.070;12.698;2023-09-19T12:32:09;18.00;1.00
14210;DHT22;7188;56.070;12.698;2023-09-19T12:34:36;18.00;1.00
14210;DHT22;7188;56.070;12.698;2023-09-19T12:37:08;18.00;1.00
14210;DHT22;7188;56.070;12.698;2023-09-19T12:39:43;18.00;1.00
14210;DHT22;7188;56.070;12.698;2023-09-19T12:42:15;18.00;1.00
14210;DHT22;7188;56.070;12.698;2023-09-19T12:44:45;17.90;1.00
14210;DHT22;7188;56.070;12.698;2023-09-19T12:47:16;17.80;1.00
14210;DHT22;7188;56.070;12.698;2023-09-19T12:50:07;17.90;1.00
14210;DHT22;7188;56.070;12.698;2023-09-19T12:52:39;18.00;1.00
14210;DHT22;7188;56.070;12.698;2023-09-19T12:55:05;18.10;1.00
14210;DHT22;7188;56.070;12.698;2023-09-19T12:57:34;18.10;1.00
14210;DHT22;7188;56.070;12.698;2023-09-19T13:00:04;18.00;1.00
14210;DHT22;7188;56.070;12.698;2023-09-19T13:02:36;18.00;1.00
14210;DHT22;7188;56.070;12.698;2023-09-19T13:05:03;18.00;1.00
14210;DHT22;7188;56.070;12.698;2023-09-19T13:07:45;18.10;1.00
14210;DHT22;7188;56.070;12.698;2023-09-19T13:10:15;18.00;1.00
14210;DHT22;7188;56.070;12.698;2023-09-19T13:12:43;17.90;30.10
14210;DHT22;7188;56.070;12.698;2023-09-19T13:15:14;17.70;56.70
14210;DHT22;7188;56.070;12.698;2023-09-19T13:17:48;17.60;98.10
14210;DHT22;7188;56.070;12.698;2023-09-19T13:20:25;17.50;99.90
14210;DHT22;7188;56.070;12.698;2023-09-19T13:22:55;17.50;99.90
14210;DHT22;7188;56.070;12.698;2023-09-19T13:25:24;17.50;99.90
14210;DHT22;7188;56.070;12.698;2023-09-19T13:30:18;17.40;99.90
14210;DHT22;7188;56.070;12.698;2023-09-19T13:32:44;17.50;99.90
14210;DHT22;7188;56.070;12.698;2023-09-19T13:35:15;17.60;99.90
14210;DHT22;7188;56.070;12.698;2023-09-19T13:37:42;17.60;99.90
14210;DHT22;7188;56.070;12.698;2023-09-19T13:40:09;17.60;99.90
14210;DHT22;7188;56.070;12.698;2023-09-19T13:42:35;17.60;99.90
14210;DHT22;7188;56.070;12.698;2023-09-19T13:45:03;17.70;99.90
14210;DHT22;7188;56.070;12.698;2023-09-19T13:47:30;17.70;99.90
14210;DHT22;7188;56.070;12.698;2023-09-19T13:49:56;17.80;99.90
14210;DHT22;7188;56.070;12.698;2023-09-19T13:52:22;17.80;99.90
14210;DHT22;7188;56.070;12.698;2023-09-19T13:54:51;17.80;99.90
14210;DHT22;7188;56.070;12.698;2023-09-19T13:57:18;17.80;99.90
14210;DHT22;7188;56.070;12.698;2023-09-19T13:59:44;17.80;99.90
14210;DHT22;7188;56.070;12.698;2023-09-19T14:02:09;17.80;99.90
14210;DHT22;7188;56.070;12.698;2023-09-19T14:04:35;17.80;99.90
14210;DHT22;7188;56.070;12.698;2023-09-19T14:07:07;17.90;99.90
14210;DHT22;7188;56.070;12.698;2023-09-19T14:09:33;17.80;99.90
14210;DHT22;7188;56.070;12.698;2023-09-19T14:11:59;17.70;99.90
14210;DHT22;7188;56.070;12.698;2023-09-19T14:14:25;17.50;99.90
14210;DHT22;7188;56.070;12.698;2023-09-19T14:16:50;17.50;99.90
14210;DHT22;7188;56.070;12.698;2023-09-19T14:19:17;17.40;99.90
14210;DHT22;7188;56.070;12.698;2023-09-19T14:21:43;17.30;99.90
14210;DHT22;7188;56.070;12.698;2023-09-19T14:24:09;17.40;1.00
14210;DHT22;7188;56.070;12.698;2023-09-19T14:26:38;17.50;1.00
14210;DHT22;7188;56.070;12.698;2023-09-19T14:29:05;17.50;1.00
14210;DHT22;7188;56.070;12.698;2023-09-19T14:31:33;17.60;1.00
14210;DHT22;7188;56.070;12.698;2023-09-19T14:33:59;17.60;1.00
14210;DHT22;7188;56.070;12.698;2023-09-19T14:36:27;17.50;1.00
14210;DHT22;7188;56.070;12.698;2023-09-19T14:38:55;17.30;1.00
14210;DHT22;7188;56.070;12.698;2023-09-19T14:41:21;17.10;1.00
14210;DHT22;7188;56.070;12.698;2023-09-19T14:43:47;16.80;1.00
14210;DHT22;7188;56.070;12.698;2023-09-19T14:46:13;16.50;99.90
14210;DHT22;7188;56.070;12.698;2023-09-19T14:48:39;16.20;1.00
14210;DHT22;7188;56.070;12.698;2023-09-19T14:51:08;16.00;1.00
14210;DHT22;7188;56.070;12.698;2023-09-19T14:53:35;15.80;1.00
14210;DHT22;7188;56.070;12.698;2023-09-19T14:56:04;15.60;1.00
14210;DHT22;7188;56.070;12.698;2023-09-19T14:58:31;15.50;99.90
14210;DHT22;7188;56.070;12.698;2023-09-19T15:01:10;15.40;1.00
14210;DHT22;7188;56.070;12.698;2023-09-19T15:03:36;15.40;1.00
14210;DHT22;7188;56.070;12.698;2023-09-19T15:06:03;15.30;26.90
14210;DHT22;7188;56.070;12.698;2023-09-19T15:08:37;15.30;99.90
14210;DHT22;7188;56.070;12.698;2023-09-19T15:11:06;15.30;99.90
14210;DHT22;7188;56.070;12.698;2023-09-19T15:13:32;15.40;99.90
14210;DHT22;7188;56.070;12.698;2023-09-19T15:16:08;15.40;99.90
14210;DHT22;7188;56.070;12.698;2023-09-19T15:18:42;15.50;99.90
14210;DHT22;7188;56.070;12.698;2023-09-19T15:21:09;15.50;99.90
14210;DHT22;7188;56.070;12.698;2023-09-19T15:23:36;15.50;99.90
14210;DHT22;7188;56.070;12.698;2023-09-19T15:26:03;15.60;99.90
14210;DHT22;7188;56.070;12.698;2023-09-19T15:28:29;15.60;99.90
14210;DHT22;7188;56.070;12.698;2023-09-19T15:31:03;15.60;99.90
14210;DHT22;7188;56.070;12.698;2023-09-19T15:33:32;15.60;99.90
14210;DHT22;7188;56.070;12.698;2023-09-19T15:38:30;15.60;1.00
14210;DHT22;7188;56.070;12.698;2023-09-19T15:40:57;15.60;1.00
14210;DHT22;7188;56.070;12.698;2023-09-19T15:43:23;15.60;99.90
14210;DHT22;7188;56.070;12.698;2023-09-19T15:45:49;15.60;1.00
14210;DHT22;7188;56.070;12.698;2023-09-19T15:48:15;15.60;1.00
14210;DHT22;7188;56.070;12.698;2023-09-19T15:50:42;15.60;99.90
14210;DHT22;7188;56.070;12.698;2023-09-19T15:53:09;15.60;1.00
14210;DHT22;7188;56.070;12.698;2023-09-19T15:55:41;15.50;1.00
14210;DHT22;7188;56.070;12.698;2023-09-19T15:58:07;15.50;1.00
14210;DHT22;7188;56.070;12.698;2023-09-19T16:00:33;15.50;1.00
14210;DHT22;7188;56.070;12.698;2023-09-19T16:03:02;15.50;99.90
14210;DHT22;7188;56.070;12.698;2023-09-19T16:05:34;15.50;1.00
14210;DHT22;7188;56.070;12.698;2023-09-19T16:08:03;15.50;99.90
14210;DHT22;7188;56.070;12.698;2023-09-19T16:10:29;15.50;1.00
14210;DHT22;7188;56.070;12.698;2023-09-19T16:12:55;15.50;1.00
14210;DHT22;7188;56.070;12.698;2023-09-19T16:15:20;15.40;1.00
14210;DHT22;7188;56.070;12.698;2023-09-19T16:17:46;15.50;1.00
14210;DHT22;7188;56.070;12.698;2023-09-19T16:20:32;15.50;1.00
14210;DHT22;7188;56.070;12.698;2023-09-19T16:22:59;15.50;99.90
14210;DHT22;7188;56.070;12.698;2023-09-19T16:25:25;15.60;99.90
14210;DHT22;7188;56.070;12.698;2023-09-19T16:27:51;15.60;99.90
14210;DHT22;7188;56.070;12.698;2023-09-19T16:30:16;15.60;1.00
14210;DHT22;7188;56.070;12.698;2023-09-19T16:32:43;15.50;20.90
14210;DHT22;7188;56.070;12.698;2023-09-19T16:35:09;15.50;20.80